createdAt,value
2022-07-30T00:02:31.020Z,100.00
2022-07-30T00:07:24.578Z,100.00
2022-07-30T00:12:18.164Z,100.00
2022-07-30T00:17:11.873Z,100.00
2022-07-30T00:22:06.759Z,100.00
2022-07-30T00:27:00.441Z,100.00
2022-07-30T00:36:54.575Z,100.00
2022-07-30T00:42:02.130Z,100.00
2022-07-30T00:46:56.134Z,100.00
2022-07-30T00:51:49.835Z,100.00
2022-07-30T00:56:44.045Z,100.00
2022-07-30T01:01:38.864Z,100.00
2022-07-30T01:06:32.419Z,100.00
2022-07-30T01:11:35.402Z,100.00
2022-07-30T01:16:29.650Z,100.00
2022-07-30T01:21:36.187Z,100.00
2022-07-30T01:26:32.938Z,100.00
2022-07-30T01:31:28.963Z,100.00
2022-07-30T01:36:24.586Z,100.00
2022-07-30T01:41:21.212Z,100.00
2022-07-30T01:46:18.718Z,100.00
2022-07-30T01:51:14.549Z,100.00
2022-07-30T01:56:12.986Z,100.00
2022-07-30T02:01:10.336Z,100.00
2022-07-30T02:06:12.093Z,100.00
2022-07-30T02:11:10.478Z,100.00
2022-07-30T02:16:16.367Z,100.00
2022-07-30T02:26:16.316Z,100.00
2022-07-30T02:31:17.706Z,100.00
2022-07-30T02:36:13.674Z,100.00
2022-07-30T02:41:13.401Z,100.00
2022-07-30T02:46:10.907Z,100.00
2022-07-30T02:51:06.409Z,100.00
2022-07-30T02:56:03.129Z,100.00
2022-07-30T03:00:59.858Z,100.00
2022-07-30T03:05:54.876Z,100.00
2022-07-30T03:10:50.187Z,100.00
2022-07-30T03:15:49.009Z,100.00
2022-07-30T03:20:47.224Z,100.00
2022-07-30T03:30:53.695Z,100.00
2022-07-30T03:35:49.342Z,100.00
2022-07-30T03:40:44.360Z,100.00
2022-07-30T03:50:44.396Z,100.00
2022-07-30T03:55:38.676Z,100.00
2022-07-30T04:00:32.091Z,100.00
2022-07-30T04:05:25.564Z,100.00
2022-07-30T04:10:20.353Z,100.00
2022-07-30T04:16:38.014Z,100.00
2022-07-30T04:20:37.961Z,100.00
2022-07-30T04:25:35.026Z,100.00
2022-07-30T04:30:29.585Z,100.00
2022-07-30T04:35:50.921Z,100.00
2022-07-30T04:40:44.109Z,100.00
2022-07-30T04:45:37.540Z,100.00
2022-07-30T04:50:36.173Z,100.00
2022-07-30T04:55:30.128Z,100.00
2022-07-30T05:00:25.124Z,100.00
2022-07-30T05:05:20.278Z,100.00
2022-07-30T05:10:14.609Z,100.00
2022-07-30T05:15:10.776Z,100.00
2022-07-30T05:20:07.284Z,100.00
2022-07-30T05:25:01.009Z,100.00
2022-07-30T05:29:55.466Z,100.00
2022-07-30T05:34:50.032Z,97.29
2022-07-30T05:40:00.502Z,96.51
2022-07-30T05:44:56.459Z,98.63
2022-07-30T05:49:50.085Z,99.44
2022-07-30T05:54:45.047Z,99.49
2022-07-30T05:59:38.473Z,99.98
2022-07-30T06:04:33.182Z,99.37
2022-07-30T06:09:36.801Z,100.00
2022-07-30T06:14:32.750Z,100.00
2022-07-30T06:19:26.257Z,96.52
2022-07-30T06:24:19.714Z,100.00
2022-07-30T06:29:16.337Z,98.77
2022-07-30T06:34:11.112Z,96.87
2022-07-30T06:39:05.074Z,96.17
2022-07-30T06:43:58.451Z,100.00
2022-07-30T06:48:51.875Z,95.16
2022-07-30T06:53:46.878Z,95.14
2022-07-30T06:58:40.678Z,95.70
2022-07-30T07:03:39.555Z,93.50
2022-07-30T07:13:36.019Z,94.13
2022-07-30T07:18:29.446Z,90.43
2022-07-30T07:28:23.356Z,88.25
2022-07-30T07:33:28.129Z,83.61
2022-07-30T07:38:21.573Z,80.95
2022-07-30T07:43:15.970Z,79.66
2022-07-30T07:48:09.571Z,78.90
2022-07-30T07:53:04.267Z,79.07
2022-07-30T07:57:57.836Z,79.18
2022-07-30T08:02:51.376Z,76.37
2022-07-30T08:12:56.921Z,73.35
2022-07-30T08:17:50.716Z,69.43
2022-07-30T08:22:44.701Z,67.71
2022-07-30T08:27:38.559Z,68.12
2022-07-30T08:32:44.757Z,66.45
2022-07-30T08:37:40.983Z,63.27
2022-07-30T08:42:36.689Z,61.58
2022-07-30T08:57:52.883Z,58.71
2022-07-30T09:07:56.717Z,58.83
2022-07-30T09:18:06.391Z,57.00
2022-07-30T09:23:02.782Z,53.18
2022-07-30T09:27:56.135Z,56.29
2022-07-30T09:32:52.642Z,50.27
2022-07-30T09:37:48.073Z,50.56
2022-07-30T09:47:56.954Z,49.12
2022-07-30T09:52:54.066Z,51.33
2022-07-30T09:57:58.703Z,49.07
2022-07-30T10:08:09.318Z,49.25
2022-07-30T10:23:35.842Z,46.94
2022-07-30T10:28:39.348Z,50.85
2022-07-30T10:33:36.664Z,50.52
2022-07-30T10:38:41.382Z,49.93
2022-07-30T10:48:36.904Z,50.79
2022-07-30T10:59:03.031Z,51.39
2022-07-30T11:04:29.755Z,48.82
2022-07-30T11:15:07.090Z,45.97
2022-07-30T11:20:13.280Z,48.43
2022-07-30T11:25:12.619Z,49.83
2022-07-30T11:30:38.938Z,49.00
2022-07-30T11:41:12.935Z,46.99
2022-07-30T11:46:10.772Z,49.55
2022-07-30T11:51:05.619Z,47.72
2022-07-30T12:01:19.567Z,46.58
2022-07-30T12:06:19.964Z,50.05
2022-07-30T12:11:14.219Z,50.04
2022-07-30T12:16:10.556Z,49.63
2022-07-30T12:21:08.412Z,53.18
2022-07-30T12:26:01.871Z,53.30
2022-07-30T12:30:57.616Z,49.87
2022-07-30T12:35:53.836Z,50.14
2022-07-30T12:40:59.490Z,49.09
2022-07-30T12:46:00.540Z,48.11
2022-07-30T12:51:07.274Z,46.96
2022-07-30T12:56:14.304Z,47.40
2022-07-30T13:01:12.901Z,46.97
2022-07-30T13:06:15.450Z,45.21
2022-07-30T13:11:08.891Z,44.97
2022-07-30T13:16:06.740Z,42.52
2022-07-30T13:21:01.457Z,45.51
2022-07-30T13:47:02.089Z,49.49
2022-07-30T13:51:55.654Z,50.17
2022-07-30T13:56:49.164Z,48.11
2022-07-30T14:01:43.115Z,49.49
2022-07-30T14:07:10.089Z,47.60
2022-07-30T14:12:03.439Z,45.37
2022-07-30T14:16:57.383Z,44.25
2022-07-30T14:21:52.988Z,46.68
2022-07-30T14:26:46.475Z,49.63
2022-07-30T14:31:40.664Z,46.25
2022-07-30T14:36:34.988Z,48.91
2022-07-30T14:41:32.989Z,46.92
2022-07-30T14:46:36.828Z,44.46
2022-07-30T14:51:45.516Z,47.03
2022-07-30T14:56:40.304Z,46.64
2022-07-30T15:01:33.668Z,46.16
2022-07-30T15:06:27.098Z,48.02
2022-07-30T15:11:22.002Z,47.27
2022-07-30T15:16:17.493Z,47.57
2022-07-30T15:26:11.581Z,49.82
2022-07-30T15:36:17.064Z,49.17
2022-07-30T15:46:20.617Z,47.57
2022-07-30T15:51:18.851Z,48.78
2022-07-30T15:56:14.601Z,46.50
2022-07-30T16:01:08.730Z,47.51
2022-07-30T16:11:14.093Z,48.94
2022-07-30T16:16:07.425Z,48.31
2022-07-30T16:26:13.101Z,50.83
2022-07-30T16:31:06.783Z,53.72
2022-07-30T16:51:35.763Z,58.28
2022-07-30T17:01:46.047Z,52.30
2022-07-30T17:06:41.160Z,51.89
2022-07-30T17:21:56.838Z,52.52
2022-07-30T17:26:50.266Z,54.89
2022-07-30T17:31:45.630Z,54.71
2022-07-30T17:36:40.598Z,54.92
2022-07-30T17:41:35.385Z,55.79
2022-07-30T17:46:48.718Z,55.46
2022-07-30T17:51:44.354Z,55.74
2022-07-30T17:56:39.744Z,55.34
2022-07-30T18:01:33.743Z,54.86
2022-07-30T18:12:20.620Z,55.05
2022-07-30T18:42:50.320Z,59.56
2022-07-30T19:08:27.671Z,59.13
2022-07-30T19:13:23.442Z,61.01
2022-07-30T19:18:21.435Z,61.47
2022-07-30T21:02:00.012Z,66.53
2022-07-30T21:06:53.714Z,66.49
2022-07-30T21:11:50.721Z,66.65
2022-07-30T21:16:56.137Z,67.24
2022-07-30T21:22:09.031Z,67.37
2022-07-30T21:27:02.386Z,67.23
2022-07-30T21:32:03.139Z,67.69
2022-07-30T21:37:02.239Z,67.57
2022-07-30T21:41:57.970Z,68.54
2022-07-30T21:57:13.667Z,70.06
2022-07-30T22:02:15.828Z,69.88
2022-07-30T22:07:12.374Z,70.82
2022-07-30T22:12:09.811Z,72.66
2022-07-30T22:17:22.563Z,74.02
2022-07-30T22:22:26.757Z,74.27
2022-07-30T22:27:22.014Z,75.46
2022-07-30T22:32:16.866Z,77.60
2022-07-30T22:37:13.739Z,76.48
2022-07-30T22:42:12.725Z,74.71
2022-07-30T22:47:15.677Z,75.94
2022-07-30T22:52:19.805Z,77.05
2022-07-30T22:57:15.978Z,77.68
2022-07-30T23:02:16.501Z,79.62
2022-07-30T23:07:13.889Z,80.86
2022-07-30T23:12:13.679Z,80.63
2022-07-30T23:17:08.040Z,80.78
2022-07-30T23:22:01.422Z,82.24
2022-07-30T23:26:54.813Z,81.09
2022-07-30T23:31:49.564Z,80.93
2022-07-30T23:36:42.949Z,81.15
2022-07-30T23:41:36.453Z,82.03
2022-07-30T23:46:29.918Z,82.59
2022-07-30T23:51:24.679Z,82.48
2022-07-30T23:56:18.648Z,83.12
